createdAt,value
2023-01-19T00:01:58.613Z,-0.33
2023-01-19T00:04:26.810Z,-0.38
2023-01-19T00:06:58.066Z,-0.23
2023-01-19T00:09:26.405Z,-0.17
2023-01-19T00:11:55.318Z,-0.18
2023-01-19T00:14:23.748Z,-0.21
2023-01-19T00:16:51.872Z,-0.23
2023-01-19T00:19:22.045Z,-0.17
2023-01-19T00:21:50.809Z,-0.03
2023-01-19T00:24:21.155Z,-0.07
2023-01-19T00:26:49.330Z,-0.01
2023-01-19T00:29:23.208Z,0.00
2023-01-19T00:31:55.868Z,-0.06
2023-01-19T00:34:27.051Z,-0.04
2023-01-19T00:36:55.420Z,-0.06
2023-01-19T00:39:23.547Z,0.09
2023-01-19T00:42:09.681Z,-0.01
2023-01-19T00:44:40.064Z,-0.02
2023-01-19T00:47:09.540Z,0.00
2023-01-19T00:49:39.669Z,0.05
2023-01-19T00:52:08.447Z,0.02
2023-01-19T00:54:36.829Z,-0.02
2023-01-19T00:57:05.196Z,-0.01
2023-01-19T00:59:33.383Z,-0.06
2023-01-19T01:02:02.388Z,-0.04
2023-01-19T01:04:30.481Z,0.04
2023-01-19T01:07:00.102Z,-0.07
2023-01-19T01:09:28.047Z,0.00
2023-01-19T01:11:56.898Z,-0.24
2023-01-19T01:14:28.901Z,-0.29
2023-01-19T01:16:57.977Z,-0.29
2023-01-19T01:19:27.926Z,-0.37
2023-01-19T01:21:56.537Z,-0.31
2023-01-19T01:24:27.005Z,-0.31
2023-01-19T01:27:00.097Z,-0.25
2023-01-19T01:29:31.492Z,-0.22
2023-01-19T01:32:00.853Z,-0.24
2023-01-19T01:34:29.396Z,-0.27
2023-01-19T01:36:58.181Z,-0.15
2023-01-19T01:39:29.038Z,-0.17
2023-01-19T01:41:58.069Z,-0.10
2023-01-19T01:44:49.897Z,-0.13
2023-01-19T01:47:28.059Z,-0.19
2023-01-19T01:50:03.583Z,-0.08
2023-01-19T01:52:40.676Z,-0.03
2023-01-19T01:55:29.147Z,-0.11
2023-01-19T01:58:02.817Z,-0.12
2023-01-19T02:00:52.910Z,-0.07
2023-01-19T02:03:22.031Z,-0.14
2023-01-19T02:06:07.903Z,-0.16
2023-01-19T02:09:04.786Z,-0.21
2023-01-19T02:11:54.388Z,-0.13
2023-01-19T02:14:22.628Z,-0.28
2023-01-19T02:16:54.768Z,-0.16
2023-01-19T02:19:29.772Z,-0.22
2023-01-19T02:22:08.614Z,-0.28
2023-01-19T02:24:40.992Z,-0.18
2023-01-19T02:27:11.270Z,-0.25
2023-01-19T02:29:43.072Z,-0.20
2023-01-19T02:32:11.288Z,-0.16
2023-01-19T02:34:39.884Z,-0.24
2023-01-19T02:37:17.562Z,-0.07
2023-01-19T02:39:54.524Z,-0.07
2023-01-19T02:42:27.976Z,0.06
2023-01-19T02:45:00.372Z,0.02
2023-01-19T02:47:31.571Z,0.11
2023-01-19T02:50:04.232Z,0.13
2023-01-19T02:52:38.949Z,0.06
2023-01-19T02:55:16.689Z,0.09
2023-01-19T02:57:59.480Z,0.14
2023-01-19T03:00:37.095Z,0.18
2023-01-19T03:03:20.991Z,0.22
2023-01-19T03:05:59.816Z,0.26
2023-01-19T03:08:41.050Z,0.04
2023-01-19T03:11:17.134Z,0.02
2023-01-19T03:13:52.956Z,0.23
2023-01-19T03:16:27.391Z,0.16
2023-01-19T03:18:58.562Z,0.10
2023-01-19T03:21:28.803Z,0.08
2023-01-19T03:24:03.775Z,0.03
2023-01-19T03:26:38.773Z,0.16
2023-01-19T03:29:10.794Z,0.07
2023-01-19T03:31:41.097Z,0.11
2023-01-19T03:34:13.834Z,0.14
2023-01-19T03:36:47.976Z,0.00
2023-01-19T03:39:22.977Z,0.02
2023-01-19T03:41:59.880Z,-0.04
2023-01-19T03:44:34.873Z,0.01
2023-01-19T03:47:08.807Z,-0.02
2023-01-19T03:49:38.956Z,-0.15
2023-01-19T03:52:07.328Z,-0.13
2023-01-19T03:54:35.847Z,-0.24
2023-01-19T03:57:06.492Z,-0.14
2023-01-19T03:59:36.926Z,-0.14
2023-01-19T04:02:05.637Z,0.05
2023-01-19T04:04:33.351Z,-0.12
2023-01-19T04:07:04.527Z,0.06
2023-01-19T04:09:32.419Z,-0.04
2023-01-19T04:12:03.746Z,-0.07
2023-01-19T04:14:33.444Z,0.03
2023-01-19T04:17:04.791Z,0.13
2023-01-19T04:19:32.652Z,0.24
2023-01-19T04:22:02.004Z,0.25
2023-01-19T04:24:29.997Z,0.18
2023-01-19T04:27:03.634Z,0.15
2023-01-19T04:29:35.748Z,0.18
2023-01-19T04:32:05.411Z,0.14
2023-01-19T04:34:35.671Z,0.25
2023-01-19T04:37:05.932Z,0.20
2023-01-19T04:39:34.836Z,0.28
2023-01-19T04:42:07.797Z,0.34
2023-01-19T04:44:40.997Z,0.29
2023-01-19T04:47:11.563Z,0.31
2023-01-19T04:49:39.621Z,0.39
2023-01-19T04:52:08.351Z,0.33
2023-01-19T04:54:37.074Z,0.41
2023-01-19T04:57:05.402Z,0.44
2023-01-19T04:59:35.856Z,0.40
2023-01-19T05:02:05.160Z,0.51
2023-01-19T05:04:39.992Z,0.65
2023-01-19T05:07:08.072Z,0.57
2023-01-19T05:09:39.262Z,0.77
2023-01-19T05:12:10.540Z,0.56
2023-01-19T05:14:41.558Z,0.80
2023-01-19T05:17:11.754Z,0.78
2023-01-19T05:19:42.484Z,0.81
2023-01-19T05:22:21.405Z,0.87
2023-01-19T05:24:54.233Z,0.69
2023-01-19T05:27:26.812Z,0.70
2023-01-19T05:29:55.281Z,0.73
2023-01-19T05:32:27.997Z,0.72
2023-01-19T05:34:56.298Z,0.79
2023-01-19T05:37:24.419Z,0.86
2023-01-19T05:39:53.937Z,0.81
2023-01-19T05:42:24.865Z,0.91
2023-01-19T05:44:55.612Z,0.80
2023-01-19T05:47:27.603Z,0.86
2023-01-19T05:49:59.472Z,0.82
2023-01-19T05:52:28.581Z,0.90
2023-01-19T05:55:00.881Z,0.94
2023-01-19T05:57:29.811Z,1.06
2023-01-19T05:59:57.566Z,1.10
2023-01-19T06:02:31.160Z,1.36
2023-01-19T06:05:07.364Z,1.36
2023-01-19T06:07:35.350Z,1.34
2023-01-19T06:10:06.762Z,1.33
2023-01-19T06:12:35.423Z,1.34
2023-01-19T06:15:03.524Z,1.27
2023-01-19T06:17:36.255Z,1.44
2023-01-19T06:20:05.783Z,1.36
2023-01-19T06:22:36.766Z,1.38
2023-01-19T06:25:06.252Z,1.40
2023-01-19T06:27:42.089Z,1.45
2023-01-19T06:30:11.391Z,1.34
2023-01-19T06:32:43.500Z,1.31
2023-01-19T06:35:16.459Z,1.24
2023-01-19T06:37:47.024Z,1.36
2023-01-19T06:40:17.791Z,1.28
2023-01-19T06:42:46.666Z,1.24
2023-01-19T06:45:14.467Z,1.43
2023-01-19T06:47:43.890Z,1.42
2023-01-19T06:50:13.510Z,1.25
2023-01-19T06:52:42.826Z,1.22
2023-01-19T06:55:12.143Z,1.23
2023-01-19T06:57:41.988Z,1.24
2023-01-19T07:00:12.378Z,1.26
2023-01-19T07:02:48.563Z,1.20
2023-01-19T07:05:17.428Z,1.24
2023-01-19T07:07:49.369Z,1.22
2023-01-19T07:10:21.838Z,1.18
2023-01-19T07:12:51.547Z,1.22
2023-01-19T07:15:23.216Z,1.20
2023-01-19T07:17:57.172Z,1.30
2023-01-19T07:20:29.747Z,1.23
2023-01-19T07:23:02.775Z,1.20
2023-01-19T07:25:32.751Z,1.21
2023-01-19T07:28:03.823Z,1.22
2023-01-19T07:30:38.602Z,1.26
2023-01-19T07:33:10.252Z,1.23
2023-01-19T07:35:39.782Z,1.19
2023-01-19T07:38:08.957Z,1.33
2023-01-19T07:40:45.551Z,1.39
2023-01-19T07:43:14.837Z,1.33
2023-01-19T07:46:09.803Z,1.71
2023-01-19T07:48:44.339Z,1.69
2023-01-19T07:51:18.134Z,1.80
2023-01-19T07:53:50.942Z,1.82
2023-01-19T07:56:22.024Z,1.93
2023-01-19T07:58:50.468Z,1.75
2023-01-19T08:01:20.849Z,1.64
2023-01-19T08:03:52.228Z,2.03
2023-01-19T08:06:24.494Z,1.96
2023-01-19T08:08:52.356Z,1.55
2023-01-19T08:11:20.364Z,1.64
2023-01-19T08:13:56.216Z,1.54
2023-01-19T08:16:24.183Z,1.51
2023-01-19T08:19:25.045Z,1.79
2023-01-19T08:22:01.653Z,1.74
2023-01-19T08:24:31.634Z,1.88
2023-01-19T08:27:02.999Z,1.78
2023-01-19T08:29:31.970Z,1.75
2023-01-19T08:32:03.639Z,1.90
2023-01-19T08:34:36.400Z,1.93
2023-01-19T08:37:05.262Z,1.89
2023-01-19T08:39:47.139Z,1.93
2023-01-19T08:42:15.342Z,2.12
2023-01-19T08:44:57.346Z,1.97
2023-01-19T08:47:27.425Z,2.15
2023-01-19T08:49:58.679Z,1.95
2023-01-19T08:52:29.349Z,2.19
2023-01-19T08:55:00.798Z,2.13
2023-01-19T08:57:30.348Z,2.40
2023-01-19T09:00:00.002Z,2.35
2023-01-19T09:02:34.697Z,2.39
2023-01-19T09:05:07.731Z,2.40
2023-01-19T09:07:37.969Z,2.69
2023-01-19T09:10:09.282Z,2.77
2023-01-19T09:12:39.343Z,2.80
2023-01-19T09:15:08.613Z,2.77
2023-01-19T09:17:38.711Z,2.83
2023-01-19T09:20:18.901Z,3.06
2023-01-19T09:22:55.005Z,3.17
2023-01-19T09:25:23.549Z,3.01
2023-01-19T09:27:59.622Z,3.15
2023-01-19T09:30:30.053Z,3.18
2023-01-19T09:33:06.357Z,3.35
2023-01-19T09:35:40.647Z,3.43
2023-01-19T09:38:10.523Z,3.35
2023-01-19T09:40:43.790Z,3.08
2023-01-19T09:43:20.751Z,3.19
2023-01-19T09:45:53.877Z,3.42
2023-01-19T09:48:38.610Z,3.74
2023-01-19T09:51:17.889Z,4.26
2023-01-19T09:53:53.457Z,4.26
2023-01-19T09:56:22.478Z,3.85
2023-01-19T09:58:55.739Z,4.23
2023-01-19T10:01:39.001Z,4.39
2023-01-19T10:04:27.888Z,4.78
2023-01-19T10:07:08.575Z,5.16
2023-01-19T10:09:49.049Z,4.80
2023-01-19T10:12:30.801Z,5.08
2023-01-19T10:15:11.774Z,4.65
2023-01-19T10:17:49.523Z,5.23
2023-01-19T10:20:28.901Z,5.14
2023-01-19T10:23:01.429Z,4.48
2023-01-19T10:25:30.756Z,4.51
2023-01-19T10:28:01.952Z,4.93
2023-01-19T10:30:30.809Z,4.26
2023-01-19T10:33:03.972Z,3.96
2023-01-19T10:35:32.432Z,4.21
2023-01-19T10:38:03.509Z,3.89
2023-01-19T10:40:37.486Z,3.91
2023-01-19T10:43:44.251Z,4.12
2023-01-19T10:46:28.129Z,4.38
2023-01-19T10:48:57.979Z,3.65
2023-01-19T10:51:31.030Z,4.13
2023-01-19T10:54:04.034Z,4.12
2023-01-19T10:56:35.285Z,3.72
2023-01-19T10:59:06.738Z,3.92
2023-01-19T11:01:38.086Z,3.59
2023-01-19T11:04:29.856Z,3.61
2023-01-19T11:07:15.473Z,3.63
2023-01-19T11:09:46.048Z,3.76
2023-01-19T11:12:33.852Z,3.70
2023-01-19T11:15:19.262Z,3.81
2023-01-19T11:17:52.454Z,3.81
2023-01-19T11:20:23.944Z,3.71
2023-01-19T11:23:08.247Z,3.96
2023-01-19T11:25:38.465Z,3.78
2023-01-19T11:28:06.879Z,3.74
2023-01-19T11:30:37.667Z,3.81
2023-01-19T11:33:24.710Z,3.62
2023-01-19T11:36:05.529Z,3.87
2023-01-19T11:38:43.457Z,4.27
2023-01-19T11:41:19.778Z,4.12
2023-01-19T11:43:52.317Z,3.96
2023-01-19T11:46:22.242Z,4.08
2023-01-19T11:48:58.844Z,4.06
2023-01-19T11:51:31.783Z,3.74
2023-01-19T11:54:04.271Z,3.60
2023-01-19T11:56:35.001Z,3.65
2023-01-19T11:59:06.884Z,3.61
2023-01-19T12:01:47.052Z,3.63
2023-01-19T12:04:18.931Z,3.67
2023-01-19T12:06:52.967Z,3.75
2023-01-19T12:09:26.026Z,3.52
2023-01-19T12:12:03.941Z,3.54
2023-01-19T12:14:41.570Z,3.59
2023-01-19T12:17:27.689Z,3.56
2023-01-19T12:20:07.822Z,3.46
2023-01-19T12:22:43.005Z,3.61
2023-01-19T12:25:21.321Z,3.43
2023-01-19T12:27:53.339Z,3.69
2023-01-19T12:30:27.580Z,3.35
2023-01-19T12:33:25.205Z,3.47
2023-01-19T12:36:02.553Z,3.40
2023-01-19T12:38:49.483Z,3.43
2023-01-19T12:41:25.472Z,3.26
2023-01-19T12:44:23.733Z,3.40
2023-01-19T12:47:03.025Z,3.39
2023-01-19T12:49:35.557Z,3.14
2023-01-19T12:52:28.624Z,3.31
2023-01-19T12:55:05.124Z,3.40
2023-01-19T12:57:36.666Z,3.06
2023-01-19T13:00:32.817Z,3.31
2023-01-19T13:03:03.962Z,3.34
2023-01-19T13:06:02.622Z,3.38
2023-01-19T13:09:00.240Z,3.28
2023-01-19T13:11:34.288Z,3.40
2023-01-19T13:14:36.603Z,3.14
2023-01-19T13:17:24.111Z,3.19
2023-01-19T13:20:19.549Z,3.19
2023-01-19T13:23:16.621Z,3.23
2023-01-19T13:25:50.086Z,3.06
2023-01-19T13:28:21.556Z,2.94
2023-01-19T13:30:57.850Z,3.07
2023-01-19T13:33:40.682Z,2.97
2023-01-19T13:36:24.023Z,3.05
2023-01-19T13:38:53.993Z,3.22
2023-01-19T13:41:28.534Z,2.75
2023-01-19T13:44:04.348Z,3.07
2023-01-19T13:46:33.912Z,2.98
2023-01-19T13:49:06.922Z,3.00
2023-01-19T13:51:35.312Z,2.80
2023-01-19T13:54:05.964Z,3.06
2023-01-19T13:56:34.507Z,2.84
2023-01-19T13:59:11.300Z,2.84
2023-01-19T14:01:42.404Z,2.81
2023-01-19T14:04:35.642Z,2.90
2023-01-19T14:07:07.825Z,3.01
2023-01-19T14:09:39.467Z,2.99
2023-01-19T14:12:21.129Z,2.84
2023-01-19T14:14:50.480Z,2.83
2023-01-19T14:17:31.506Z,3.05
2023-01-19T14:20:11.687Z,2.97
2023-01-19T14:22:42.124Z,3.09
2023-01-19T14:25:40.623Z,2.95
2023-01-19T14:28:28.713Z,3.03
2023-01-19T14:31:00.299Z,2.92
2023-01-19T14:33:43.834Z,3.00
2023-01-19T14:36:34.925Z,2.94
2023-01-19T14:39:05.327Z,3.11
2023-01-19T14:41:49.139Z,2.79
2023-01-19T14:44:21.043Z,3.02
2023-01-19T14:51:05.229Z,2.98
2023-01-19T14:53:43.559Z,2.89
2023-01-19T14:56:28.572Z,2.86
2023-01-19T14:58:59.263Z,2.73
2023-01-19T15:01:30.908Z,2.83
2023-01-19T15:03:59.559Z,2.78
2023-01-19T15:06:36.039Z,2.80
2023-01-19T15:09:10.986Z,2.81
2023-01-19T15:11:39.225Z,2.70
2023-01-19T15:14:14.376Z,2.66
2023-01-19T15:16:50.811Z,2.70
2023-01-19T15:19:20.366Z,2.60
2023-01-19T15:21:50.723Z,2.62
2023-01-19T15:24:22.856Z,2.36
2023-01-19T15:26:51.585Z,2.36
2023-01-19T15:29:25.161Z,2.59
2023-01-19T15:31:54.929Z,2.64
2023-01-19T15:34:24.504Z,2.44
2023-01-19T15:36:53.736Z,2.57
2023-01-19T15:39:34.747Z,2.53
2023-01-19T15:42:02.712Z,2.56
2023-01-19T15:44:33.841Z,2.54
2023-01-19T15:47:03.486Z,2.43
2023-01-19T15:49:32.614Z,2.59
2023-01-19T15:52:00.729Z,2.61
2023-01-19T15:54:34.478Z,2.49
2023-01-19T15:57:06.336Z,2.40
2023-01-19T15:59:39.948Z,2.47
2023-01-19T16:02:08.644Z,2.60
2023-01-19T16:04:38.517Z,2.59
2023-01-19T16:07:07.249Z,2.51
2023-01-19T16:09:39.722Z,2.57
2023-01-19T16:12:08.640Z,2.59
2023-01-19T16:14:37.208Z,2.75
2023-01-19T16:17:10.574Z,2.68
2023-01-19T16:19:43.540Z,2.63
2023-01-19T16:22:19.673Z,2.81
2023-01-19T16:24:49.194Z,2.88
2023-01-19T16:27:17.187Z,2.72
2023-01-19T16:29:48.482Z,2.59
2023-01-19T16:32:26.073Z,2.68
2023-01-19T16:35:00.371Z,2.63
2023-01-19T16:37:32.498Z,2.61
2023-01-19T16:40:02.042Z,2.62
2023-01-19T16:42:34.050Z,2.67
2023-01-19T16:45:02.872Z,2.45
2023-01-19T16:47:35.645Z,2.40
2023-01-19T16:50:13.852Z,2.53
2023-01-19T16:52:42.100Z,2.56
2023-01-19T16:55:12.392Z,2.47
2023-01-19T16:57:48.590Z,2.43
2023-01-19T17:00:21.193Z,2.43
2023-01-19T17:02:49.780Z,2.49
2023-01-19T17:05:17.933Z,2.47
2023-01-19T17:07:48.961Z,2.60
2023-01-19T17:10:21.850Z,2.60
2023-01-19T17:12:52.452Z,2.54
2023-01-19T17:15:22.817Z,2.62
2023-01-19T17:17:51.715Z,2.63
2023-01-19T17:20:20.694Z,2.73
2023-01-19T17:22:53.675Z,2.77
2023-01-19T17:25:27.301Z,2.61
2023-01-19T17:27:58.389Z,2.72
2023-01-19T17:30:31.671Z,2.51
2023-01-19T17:33:05.923Z,2.58
2023-01-19T17:35:37.535Z,2.70
2023-01-19T17:38:06.064Z,2.53
2023-01-19T17:40:36.756Z,2.89
2023-01-19T17:43:05.055Z,2.65
2023-01-19T17:45:37.346Z,2.65
2023-01-19T17:48:06.360Z,2.81
2023-01-19T17:50:38.314Z,2.84
2023-01-19T17:53:07.664Z,2.85
2023-01-19T17:55:39.231Z,2.75
2023-01-19T17:58:07.516Z,2.83
2023-01-19T18:00:38.876Z,2.87
2023-01-19T18:03:08.592Z,2.88
2023-01-19T18:05:38.093Z,2.83
2023-01-19T18:08:30.578Z,2.85
2023-01-19T18:11:08.221Z,2.87
2023-01-19T18:13:43.696Z,3.10
2023-01-19T18:16:16.217Z,3.07
2023-01-19T18:18:45.535Z,2.95
2023-01-19T18:21:15.550Z,2.91
2023-01-19T18:23:50.353Z,3.12
2023-01-19T18:26:23.250Z,2.90
2023-01-19T18:29:01.387Z,2.94
2023-01-19T18:31:34.122Z,2.82
2023-01-19T18:34:06.517Z,2.87
2023-01-19T18:36:35.101Z,2.87
2023-01-19T18:39:11.257Z,2.84
2023-01-19T18:41:43.748Z,2.77
2023-01-19T18:44:16.829Z,2.77
2023-01-19T18:46:49.119Z,2.97
2023-01-19T18:49:27.096Z,2.77
2023-01-19T18:51:54.992Z,2.74
2023-01-19T18:54:24.437Z,2.74
2023-01-19T18:57:01.322Z,2.82
2023-01-19T18:59:36.134Z,2.75
2023-01-19T19:02:07.727Z,2.79
2023-01-19T19:04:37.195Z,2.91
2023-01-19T19:07:11.749Z,2.86
2023-01-19T19:09:40.463Z,2.80
2023-01-19T19:12:13.251Z,2.72
2023-01-19T19:14:41.519Z,2.85
2023-01-19T19:17:13.679Z,2.82
2023-01-19T19:19:43.025Z,2.72
2023-01-19T19:22:14.224Z,2.75
2023-01-19T19:24:44.418Z,2.81
2023-01-19T19:27:16.302Z,2.55
2023-01-19T19:29:45.361Z,2.55
2023-01-19T19:32:13.674Z,2.46
2023-01-19T19:34:41.661Z,2.48
2023-01-19T19:37:18.802Z,2.54
2023-01-19T19:39:48.993Z,2.46
2023-01-19T19:42:25.345Z,2.40
2023-01-19T19:44:57.309Z,2.38
2023-01-19T19:47:30.751Z,2.41
2023-01-19T19:50:01.117Z,2.38
2023-01-19T19:52:32.014Z,2.34
2023-01-19T19:55:01.525Z,2.32
2023-01-19T19:57:31.169Z,2.26
2023-01-19T20:00:02.133Z,2.35
2023-01-19T20:02:30.996Z,2.32
2023-01-19T20:05:08.208Z,2.13
2023-01-19T20:07:46.986Z,2.23
2023-01-19T20:10:20.077Z,2.26
2023-01-19T20:12:58.221Z,2.29
2023-01-19T20:15:28.241Z,2.25
2023-01-19T20:17:58.352Z,2.21
2023-01-19T20:20:27.701Z,2.18
2023-01-19T20:22:56.975Z,1.97
2023-01-19T20:25:33.657Z,2.13
2023-01-19T20:28:06.511Z,2.08
2023-01-19T20:30:36.877Z,2.09
2023-01-19T20:33:08.089Z,2.05
2023-01-19T20:35:37.618Z,1.71
2023-01-19T20:38:07.451Z,1.71
2023-01-19T20:40:51.000Z,2.02
2023-01-19T20:43:20.784Z,1.69
2023-01-19T20:45:51.127Z,1.98
2023-01-19T20:48:23.551Z,1.65
2023-01-19T20:50:55.082Z,1.88
2023-01-19T20:53:23.484Z,1.88
2023-01-19T20:55:53.693Z,1.92
2023-01-19T20:58:26.452Z,1.81
2023-01-19T21:00:57.859Z,1.83
2023-01-19T21:03:26.012Z,1.84
2023-01-19T21:05:59.464Z,1.80
2023-01-19T21:08:29.036Z,1.89
2023-01-19T21:11:00.687Z,1.55
2023-01-19T21:13:33.041Z,1.70
2023-01-19T21:16:04.285Z,1.72
2023-01-19T21:18:32.558Z,1.63
2023-01-19T21:21:01.685Z,1.69
2023-01-19T21:23:30.276Z,1.85
2023-01-19T21:26:01.500Z,1.73
2023-01-19T21:28:32.493Z,1.72
2023-01-19T21:31:11.235Z,1.66
2023-01-19T21:33:45.718Z,1.65
2023-01-19T21:36:14.252Z,1.68
2023-01-19T21:38:42.869Z,1.60
2023-01-19T21:41:18.674Z,1.58
2023-01-19T21:43:52.443Z,1.51
2023-01-19T21:46:28.839Z,1.36
2023-01-19T21:48:58.467Z,1.25
2023-01-19T21:51:29.300Z,1.31
2023-01-19T21:53:59.482Z,1.31
2023-01-19T21:56:28.395Z,1.35
2023-01-19T21:59:04.477Z,1.32
2023-01-19T22:01:35.097Z,1.35
2023-01-19T22:04:06.017Z,1.40
2023-01-19T22:06:37.847Z,1.45
2023-01-19T22:09:09.538Z,1.54
2023-01-19T22:11:43.693Z,1.53
2023-01-19T22:14:12.871Z,1.62
2023-01-19T22:16:44.916Z,1.54
2023-01-19T22:19:15.116Z,1.52
2023-01-19T22:21:45.358Z,1.44
2023-01-19T22:24:16.336Z,1.47
2023-01-19T22:26:45.402Z,1.44
2023-01-19T22:29:19.327Z,1.39
2023-01-19T22:31:52.203Z,1.35
2023-01-19T22:34:25.698Z,1.39
2023-01-19T22:36:57.825Z,1.61
2023-01-19T22:39:27.664Z,1.48
2023-01-19T22:41:55.543Z,1.57
2023-01-19T22:44:32.180Z,1.69
2023-01-19T22:47:00.009Z,1.70
2023-01-19T22:49:29.938Z,1.62
2023-01-19T22:52:00.985Z,1.62
2023-01-19T22:54:30.166Z,1.46
2023-01-19T22:57:00.943Z,1.40
2023-01-19T22:59:32.151Z,1.32
2023-01-19T23:02:04.753Z,1.28
2023-01-19T23:04:36.423Z,1.18
2023-01-19T23:07:04.703Z,1.21
2023-01-19T23:09:35.577Z,1.11
2023-01-19T23:12:15.163Z,1.27
2023-01-19T23:14:48.502Z,1.25
2023-01-19T23:17:20.450Z,1.12
2023-01-19T23:19:56.855Z,1.07
2023-01-19T23:22:29.873Z,1.08
2023-01-19T23:25:02.248Z,0.99
2023-01-19T23:27:32.837Z,0.85
2023-01-19T23:30:09.422Z,0.83
2023-01-19T23:32:45.194Z,0.89
2023-01-19T23:35:14.710Z,0.79
2023-01-19T23:37:50.078Z,0.80
2023-01-19T23:40:26.814Z,0.61
2023-01-19T23:42:57.213Z,0.65
2023-01-19T23:45:27.015Z,0.55
2023-01-19T23:47:56.328Z,0.51
2023-01-19T23:50:26.291Z,0.77
2023-01-19T23:52:57.203Z,0.64
2023-01-19T23:55:29.859Z,0.58
2023-01-19T23:57:57.912Z,0.51
